createdAt,value
2023-03-04T00:52:43.529Z,26.65
2023-03-04T03:38:06.937Z,20.37
2023-03-04T04:07:36.798Z,16.33
2023-03-04T04:10:05.562Z,13.98
2023-03-04T04:12:32.997Z,15.80
2023-03-04T04:15:01.109Z,13.25
2023-03-04T04:17:28.907Z,11.35
2023-03-04T04:19:56.300Z,12.18
2023-03-04T04:22:23.710Z,20.30
2023-03-04T04:24:51.425Z,22.35
2023-03-04T04:27:18.880Z,14.15
2023-03-04T04:32:13.824Z,12.30
2023-03-04T04:34:41.300Z,15.88
2023-03-04T04:42:03.627Z,15.98
2023-03-04T05:01:43.433Z,16.73
2023-03-04T05:04:11.763Z,19.73
2023-03-04T05:06:39.347Z,22.48
2023-03-04T05:09:07.321Z,18.17
2023-03-04T05:11:34.824Z,22.50
2023-03-04T05:14:02.193Z,13.85
2023-03-04T05:16:29.919Z,23.58
2023-03-04T05:18:57.388Z,22.87
2023-03-04T05:21:24.942Z,21.40
2023-03-04T05:28:48.310Z,20.35
2023-03-04T05:31:16.558Z,18.50
2023-03-04T05:43:36.075Z,24.10
2023-03-04T05:46:04.455Z,30.15
2023-03-04T05:48:32.026Z,24.55
2023-03-04T05:55:56.214Z,20.92
2023-03-04T05:58:23.673Z,24.45
2023-03-04T06:00:51.493Z,29.25
2023-03-04T06:03:22.127Z,27.08
2023-03-04T06:05:49.525Z,21.92
2023-03-04T06:08:16.961Z,30.52
2023-03-04T06:10:45.418Z,24.42
2023-03-04T06:13:12.974Z,21.30
2023-03-04T06:15:40.417Z,27.62
2023-03-04T06:18:08.352Z,25.65
2023-03-04T06:23:03.849Z,33.53
2023-03-04T06:25:31.746Z,33.15
2023-03-04T06:27:59.583Z,39.00
2023-03-04T06:30:27.457Z,33.08
2023-03-04T06:32:55.179Z,29.23
2023-03-04T06:40:17.565Z,34.17
2023-03-04T06:42:44.950Z,19.15
2023-03-04T06:47:40.387Z,24.58
2023-03-04T06:57:30.071Z,27.08
2023-03-04T07:09:47.423Z,29.17
2023-03-04T07:12:14.915Z,32.22
2023-03-04T07:14:42.306Z,36.73
2023-03-04T07:17:10.232Z,37.67
2023-03-04T07:19:38.105Z,37.42
2023-03-04T07:22:05.519Z,32.25
2023-03-04T07:27:00.713Z,39.20
2023-03-04T07:29:28.204Z,42.85
2023-03-04T07:31:56.005Z,33.92
2023-03-04T07:36:50.700Z,36.83
2023-03-04T07:39:18.372Z,34.47
2023-03-04T07:41:45.802Z,36.78
2023-03-04T07:44:13.639Z,28.60
2023-03-04T07:46:41.425Z,30.92
2023-03-04T07:49:08.804Z,27.13
2023-03-04T07:51:37.153Z,34.83
2023-03-04T07:54:04.859Z,32.45
2023-03-04T07:56:33.710Z,28.30
2023-03-04T07:59:01.644Z,22.50
2023-03-04T08:01:37.410Z,26.65
2023-03-04T08:04:06.618Z,17.37
2023-03-04T08:06:36.086Z,27.08
2023-03-04T08:09:08.797Z,27.83
2023-03-04T08:11:37.855Z,32.80
2023-03-04T08:14:05.334Z,32.55
2023-03-04T08:16:33.137Z,30.05
2023-03-04T08:19:02.503Z,28.15
2023-03-04T08:21:31.072Z,31.70
2023-03-04T08:24:02.451Z,30.23
2023-03-04T08:26:33.976Z,32.85
2023-03-04T08:29:02.953Z,22.65
2023-03-04T08:31:31.596Z,24.77
2023-03-04T08:33:59.008Z,22.30
2023-03-04T08:36:26.462Z,19.85
2023-03-04T08:38:54.160Z,19.17
2023-03-04T08:41:22.792Z,22.37
2023-03-04T08:43:50.258Z,23.08
2023-03-04T08:46:18.142Z,23.42
2023-03-04T08:48:45.538Z,25.45
2023-03-04T08:51:14.627Z,17.45
2023-03-04T08:53:45.294Z,21.33
2023-03-04T08:56:13.183Z,17.92
2023-03-04T08:58:40.866Z,17.02
2023-03-04T09:01:10.687Z,15.63
2023-03-04T09:03:38.817Z,15.77
2023-03-04T09:06:09.149Z,17.00
2023-03-04T09:08:37.044Z,20.17
2023-03-04T09:11:04.550Z,15.63
2023-03-04T09:13:32.607Z,19.20
2023-03-04T09:16:01.091Z,18.12
2023-03-04T09:18:29.043Z,22.20
2023-03-04T09:20:56.434Z,22.85
2023-03-04T09:23:24.134Z,21.20
2023-03-04T09:25:51.630Z,17.40
2023-03-04T09:31:11.873Z,22.55
2023-03-04T09:33:41.566Z,21.55
2023-03-04T09:36:11.343Z,24.12
2023-03-04T09:38:39.323Z,25.30
2023-03-04T09:41:16.223Z,21.45
2023-03-04T09:43:44.566Z,21.77
2023-03-04T09:46:16.167Z,26.15
2023-03-04T09:48:47.909Z,16.00
2023-03-04T09:51:17.989Z,28.95
2023-03-04T09:53:48.697Z,30.10
2023-03-04T09:56:16.265Z,27.27
2023-03-04T09:58:48.785Z,21.77
2023-03-04T10:01:22.841Z,18.70
2023-03-04T10:04:05.674Z,23.62
2023-03-04T10:06:33.997Z,24.37
2023-03-04T10:09:05.179Z,24.20
2023-03-04T10:11:41.007Z,20.55
2023-03-04T10:14:19.837Z,24.02
2023-03-04T10:16:53.713Z,28.65
2023-03-04T10:19:44.291Z,25.20
2023-03-04T10:22:36.941Z,23.83
2023-03-04T10:25:19.655Z,29.02
2023-03-04T10:27:59.928Z,19.77
2023-03-04T10:31:01.510Z,22.20
2023-03-04T10:33:39.948Z,25.75
2023-03-04T10:36:36.853Z,27.83
2023-03-04T10:39:19.552Z,25.17
2023-03-04T10:42:14.397Z,21.70
2023-03-04T10:44:51.405Z,30.60
2023-03-04T10:47:19.122Z,27.67
2023-03-04T10:50:00.777Z,22.85
2023-03-04T10:52:29.788Z,25.60
2023-03-04T10:55:06.549Z,23.90
2023-03-04T10:57:41.905Z,18.58
2023-03-04T11:00:18.329Z,24.58
2023-03-04T11:02:47.478Z,25.90
2023-03-04T11:05:14.779Z,19.58
2023-03-04T11:07:55.247Z,25.60
2023-03-04T11:10:38.887Z,23.65
2023-03-04T11:13:22.013Z,20.05
2023-03-04T11:15:51.428Z,26.92
2023-03-04T11:18:43.872Z,26.52
2023-03-04T11:21:20.132Z,26.37
2023-03-04T11:23:52.260Z,23.05
2023-03-04T11:26:27.571Z,24.98
2023-03-04T11:29:16.008Z,19.30
2023-03-04T11:31:50.303Z,20.27
2023-03-04T11:34:17.632Z,27.10
2023-03-04T11:36:57.401Z,22.33
2023-03-04T11:39:30.720Z,20.70
2023-03-04T11:42:23.478Z,18.77
2023-03-04T11:44:51.887Z,23.25
2023-03-04T11:47:28.923Z,24.17
2023-03-04T11:50:35.095Z,17.20
2023-03-04T11:53:02.737Z,23.48
2023-03-04T11:55:35.838Z,17.83
2023-03-04T11:58:21.991Z,21.75
2023-03-04T12:01:10.433Z,16.10
2023-03-04T12:04:12.496Z,24.45
2023-03-04T12:07:01.292Z,16.58
2023-03-04T12:09:51.835Z,22.62
2023-03-04T12:12:53.305Z,19.95
2023-03-04T12:15:29.712Z,18.37
2023-03-04T12:18:18.676Z,24.08
2023-03-04T12:20:59.885Z,21.92
2023-03-04T12:23:27.227Z,25.50
2023-03-04T12:34:19.441Z,21.55
2023-03-04T12:37:20.236Z,26.87
2023-03-04T12:40:26.702Z,20.90
2023-03-04T12:43:16.084Z,26.77
2023-03-04T12:46:05.138Z,17.60
2023-03-04T12:48:37.660Z,29.27
2023-03-04T12:51:15.939Z,21.67
2023-03-04T12:53:58.619Z,29.42
2023-03-04T18:09:35.143Z,24.23
2023-03-04T18:12:05.415Z,29.67
2023-03-04T19:58:01.125Z,18.05
2023-03-04T20:00:29.814Z,18.60
2023-03-04T20:02:58.950Z,19.27
2023-03-04T20:05:29.559Z,20.30
2023-03-04T20:07:57.665Z,18.23
2023-03-04T20:10:26.757Z,17.83
2023-03-04T20:12:58.919Z,18.80
2023-03-04T20:15:28.161Z,16.75
2023-03-04T20:18:00.312Z,16.90
2023-03-04T20:20:29.880Z,16.80
2023-03-04T20:22:59.581Z,21.08
2023-03-04T20:25:29.473Z,20.33
2023-03-04T20:27:59.298Z,21.12
2023-03-04T20:30:30.065Z,20.62
2023-03-04T20:32:58.409Z,27.05
2023-03-04T20:35:26.486Z,23.50
2023-03-04T20:37:55.168Z,13.55
2023-03-04T20:40:24.520Z,14.48
2023-03-04T20:42:53.260Z,14.27
2023-03-04T20:45:22.668Z,14.73
2023-03-04T21:25:03.394Z,14.25
2023-03-04T21:27:31.479Z,14.40
2023-03-04T21:29:59.114Z,11.48
2023-03-04T22:07:09.960Z,13.00
2023-03-04T22:09:37.801Z,13.80
2023-03-04T22:12:06.232Z,13.32
2023-03-04T22:14:33.812Z,10.25
2023-03-04T22:17:01.271Z,15.55
2023-03-04T22:19:31.853Z,10.82
2023-03-04T22:21:59.823Z,14.35
2023-03-04T22:24:27.573Z,12.50
2023-03-04T22:26:57.623Z,10.60
2023-03-04T22:29:25.050Z,11.07
2023-03-04T22:31:52.465Z,12.68
2023-03-04T22:34:20.211Z,10.23
2023-03-04T22:36:49.260Z,12.60
2023-03-04T22:39:21.188Z,10.20
2023-03-04T22:41:49.028Z,12.07
2023-03-04T22:44:16.475Z,15.05
2023-03-04T22:46:44.555Z,11.07
2023-03-04T22:49:13.651Z,10.82
2023-03-04T22:51:43.775Z,10.23
2023-03-04T22:54:15.708Z,9.40
2023-03-04T22:56:44.018Z,11.57
2023-03-04T22:59:11.475Z,12.27
2023-03-04T23:01:38.913Z,10.77
2023-03-04T23:04:06.658Z,13.80
2023-03-04T23:06:34.595Z,12.35
2023-03-04T23:09:01.970Z,11.05
2023-03-04T23:11:31.801Z,10.40
2023-03-04T23:14:02.116Z,11.52
2023-03-04T23:16:29.992Z,14.35
2023-03-04T23:18:59.396Z,9.00
2023-03-04T23:21:28.404Z,10.25
2023-03-04T23:23:56.168Z,9.73
2023-03-04T23:26:26.245Z,11.65
2023-03-04T23:28:55.757Z,11.38
2023-03-04T23:31:23.636Z,14.52
2023-03-04T23:33:51.170Z,14.65
2023-03-04T23:36:19.782Z,10.68
2023-03-04T23:38:48.516Z,15.65
2023-03-04T23:41:18.364Z,12.43
2023-03-04T23:43:46.975Z,15.98
2023-03-04T23:46:15.377Z,16.37
2023-03-04T23:48:46.516Z,16.10
2023-03-04T23:51:15.292Z,15.48
2023-03-04T23:53:43.495Z,15.00
2023-03-04T23:56:12.427Z,16.17
2023-03-04T23:58:41.317Z,15.43
